Skip Navigation Links
NOAA logo - Click to go to the NOAA homepage
NOAA's National Weather Service
Alaska Aviation Weather Unit
  NWS logo - Click to go to the NWS homepage
Left Navbar Graphic     17 AKDT = 01 GMT

   
NOAA is celebrating 200 years of science, service, and stewardship. Visit the NOAA 200th celebration Web site to learn more.
USA.gov is the U.S. Government's official Web portal to all Federal, state and local government Web resources and services.
Facebook
NWS on Facebook

Important Change Regarding the AAWU Web Presence

 

Over the last several months, the AAWU has been working to navigate its webpages to a nationally supported server. Security, as well as other needs, have necessitated the change.  In the process, we have made an effort to enhance the functionality of our website, as well as some of our products. As of June 27, 2017, aawu.arh.noaa.gov will be discontinued. The new AAWU web address is weather.gov/aawu. It is now live and will run in-parallel with the old site until it is discontinued. Please send any feedback or questions regarding the new webpages to nws.ar.aawu.webauthors@noaa.gov.  Thank you for your patience during this time of transition.
AAWU Home :: Display TAF Add Bookmark
TAF PAAQ 252323Z 2600/2624 VRB05KT P6SM FEW035 FEW070 BKN220
     FM262200 16014G22KT P6SM FEW080 BKN120=

METAR PAAQ 251953Z 00000KT 10SM FEW040 FEW070 OVC200 19/11 A2997 RMK AO2 SLP150 T01890111= METAR PAAQ 252053Z VRB05KT 10SM FEW040 FEW070 OVC200 20/11 A2995 RMK AO2 SLP143 T02000111 58016= METAR PAAQ 252153Z VRB03KT 10SM FEW035 FEW070 OVC220 21/11 A2993 RMK AO2 SLP136 T02110111= METAR PAAQ 252253Z 26010KT 10SM FEW035 FEW070 OVC200 22/11 A2993 RMK AO2 SLP134 T02170111= METAR PAAQ 252353Z 22006KT 10SM FEW035 FEW070 OVC200 21/11 A2992 RMK AO2 SLP134 T02110111 10222 20161 56009=
 Alaska TAF Map

NOAA's National Weather Service
Alaska Aviation Weather Unit
6930 Sand Lake Road
Anchorage, AK 99502-1845
Disclaimer
Credits
Glossary
Privacy Policy
About Us
Career Opportunities
Contact AAWU Internet Services Site last modified: April, 17th 2012